Arcata, CA (95518)

3:11 AM PST on December 10, 2016 (GMT -0800)
1 Harpst Street, Arcata, CA 95521 | | Change Station

Elev 20 ft 40.87 °N, 124.08 °W | Updated 8 seconds ago

Rain
Rain
51.8 °F
Feels Like 51.8 °F
N
2.5
Wind Variable Wind from NW
Gusts 2.5 mph

Today
High -- | Low -- °F
--% Chance of Precip.
Yesterday
High -- | Low -- °F
Precip. -- in
Pressure 29.98 in
Visibility 4.0 miles
Clouds Mostly Cloudy 2800 ft
Overcast 4800 ft
Dew Point 50 °F
Humidity 94%
Rainfall 0.37 in
Snow Depth Not available.
7:30 AM 4:48 PM
Waxing Gibbous, 82% visible
METAR KACV 101053Z AUTO 35006KT 4SM -RA BR BKN028 OVC048 11/11 A2996 RMK AO2 SLP150 P0010 T01110111
Pressure 29.98 in
Visibility 4.0 miles
Clouds Mostly Cloudy 2800 ft
Overcast 4800 ft
Dew Point 50 °F
Humidity 94%
Rainfall 0.37 in
Snow Depth Not available.
7:30 AM 4:48 PM
Waxing Gibbous, 82% visible
METAR KACV 101053Z AUTO 35006KT 4SM -RA BR BKN028 OVC048 11/11 A2996 RMK AO2 SLP150 P0010 T01110111

10-Day Weather Forecast

Almanac

Astronomy

Dec. 10, 2016 Rise Set
Actual Time
Civil Twilight
Nautical Twilight
Astronomical Twilight
Moon
Length of Visible Light
Length of Day
Tomorrow will be .
, % of the Moon is Illuminated

Today's Extremes

State Highs State Lows

Community

WunderPhotos

Upload Photos

1,956,536 photos uploaded!

WunderBlog® & News

Nearby

Air Quality

  Air Quality AQ Index Pollutant
Not available.

Snow Depth

Station Depth Elevation

Earthquake Activity

City Distance Mag. Time & Date
Minimum magnitude displayed is 2.5.

Coastal Water Temperatures

Place Temperature

Stations

Nearby Weather Stations

Station Location Temp. Windchill Dew Point Humidity Wind Precip. Elev Updated Type
                   

Watches & Warnings

There are currently no watches in effect.